createdAt,value
2022-08-05T00:03:35.009Z,21.90
2022-08-05T00:08:42.596Z,21.80
2022-08-05T00:13:53.034Z,21.80
2022-08-05T00:18:54.967Z,21.80
2022-08-05T00:24:10.604Z,21.70
2022-08-05T00:29:08.291Z,21.60
2022-08-05T00:34:53.480Z,21.60
2022-08-05T00:39:20.950Z,21.50
2022-08-05T00:44:30.563Z,21.50
2022-08-05T00:49:44.717Z,21.40
2022-08-05T00:54:42.269Z,21.30
2022-08-05T00:59:50.407Z,21.30
2022-08-05T01:04:56.218Z,21.20
2022-08-05T01:10:03.496Z,21.10
2022-08-05T01:15:35.434Z,21.00
2022-08-05T01:20:44.386Z,21.00
2022-08-05T01:26:01.714Z,20.90
2022-08-05T01:31:24.936Z,20.70
2022-08-05T01:36:36.435Z,20.60
2022-08-05T01:41:44.870Z,20.60
2022-08-05T01:46:50.840Z,20.50
2022-08-05T01:52:12.387Z,20.40
2022-08-05T01:58:29.711Z,20.30
2022-08-05T02:02:26.099Z,20.30
2022-08-05T02:07:33.731Z,20.20
2022-08-05T02:12:45.834Z,20.10
2022-08-05T02:18:30.790Z,20.10
2022-08-05T02:23:21.487Z,20.00
2022-08-05T02:28:33.060Z,19.90
2022-08-05T02:33:43.651Z,19.80
2022-08-05T02:38:52.866Z,19.70
2022-08-05T02:44:06.014Z,19.70
2022-08-05T02:49:11.106Z,19.60
2022-08-05T02:54:34.968Z,19.60
2022-08-05T02:59:26.914Z,19.60
2022-08-05T03:04:34.171Z,19.50
2022-08-05T03:09:51.619Z,19.50
2022-08-05T03:14:50.696Z,19.40
2022-08-05T03:19:58.478Z,19.40
2022-08-05T03:25:31.560Z,19.20
2022-08-05T03:30:12.415Z,19.10
2022-08-05T03:35:18.644Z,19.00
2022-08-05T03:40:31.152Z,18.90
2022-08-05T03:45:31.185Z,18.80
2022-08-05T03:50:47.801Z,18.70
2022-08-05T03:56:09.758Z,18.70
2022-08-05T04:01:06.027Z,18.60
2022-08-05T04:06:12.542Z,18.60
2022-08-05T04:11:18.515Z,18.60
2022-08-05T04:16:32.134Z,18.60
2022-08-05T04:22:08.179Z,18.60
2022-08-05T04:26:41.637Z,18.70
2022-08-05T04:31:48.367Z,18.80
2022-08-05T04:36:54.363Z,18.90
2022-08-05T04:41:59.851Z,19.00
2022-08-05T04:47:09.860Z,19.10
2022-08-05T04:52:13.195Z,19.20
2022-08-05T04:57:18.625Z,19.40
2022-08-05T05:02:37.566Z,19.50
2022-08-05T05:07:32.191Z,19.70
2022-08-05T05:12:39.204Z,19.80
2022-08-05T05:17:56.605Z,20.00
2022-08-05T05:22:52.565Z,20.10
2022-08-05T05:27:58.114Z,20.30
2022-08-05T05:33:15.893Z,20.40
2022-08-05T05:38:14.202Z,20.60
2022-08-05T05:43:21.876Z,20.70
2022-08-05T05:48:28.323Z,20.90
2022-08-05T05:53:46.033Z,21.20
2022-08-05T05:58:40.818Z,21.50
2022-08-05T06:04:00.833Z,21.70
2022-08-05T06:08:56.157Z,22.00
2022-08-05T06:14:02.414Z,22.30
2022-08-05T06:19:08.166Z,22.60
2022-08-05T06:24:17.356Z,22.80
2022-08-05T06:29:49.256Z,23.10
2022-08-05T06:34:31.815Z,23.40
2022-08-05T06:39:38.877Z,23.70
2022-08-05T06:44:49.125Z,24.10
2022-08-05T06:50:01.317Z,24.40
2022-08-05T06:55:02.638Z,24.60
2022-08-05T07:00:10.793Z,25.00
2022-08-05T07:05:18.874Z,25.40
2022-08-05T07:10:32.471Z,25.60
2022-08-05T07:16:00.928Z,26.10
2022-08-05T07:20:58.001Z,26.50
2022-08-05T07:26:06.014Z,26.80
2022-08-05T07:31:11.534Z,27.20
2022-08-05T07:36:20.290Z,27.40
2022-08-05T07:42:13.689Z,27.70
2022-08-05T07:46:34.035Z,28.10
2022-08-05T07:51:40.865Z,28.30
2022-08-05T07:57:13.658Z,28.60
2022-08-05T08:01:58.006Z,29.00
2022-08-05T08:07:05.433Z,29.40
2022-08-05T08:12:29.656Z,29.40
2022-08-05T08:17:18.657Z,29.50
2022-08-05T08:22:27.746Z,29.70
2022-08-05T08:27:39.988Z,30.00
2022-08-05T08:32:41.766Z,30.30
2022-08-05T08:37:51.750Z,30.50
2022-08-05T08:42:56.550Z,30.50
2022-08-05T08:48:12.938Z,30.70
2022-08-05T08:53:15.071Z,31.10
2022-08-05T08:58:26.010Z,31.10
2022-08-05T09:03:45.004Z,31.40
2022-08-05T09:08:40.025Z,31.20
2022-08-05T09:14:09.625Z,31.50
2022-08-05T09:18:52.376Z,31.70
2022-08-05T09:24:10.178Z,31.80
2022-08-05T09:29:19.094Z,31.60
2022-08-05T09:34:23.437Z,31.80
2022-08-05T09:39:45.537Z,32.40
2022-08-05T09:44:49.429Z,32.00
2022-08-05T09:50:02.316Z,32.40
2022-08-05T09:55:56.650Z,32.60
2022-08-05T10:00:37.294Z,33.10
2022-08-05T10:05:43.133Z,33.40
2022-08-05T10:10:54.040Z,33.60
2022-08-05T10:16:01.661Z,32.90
2022-08-05T10:21:15.692Z,33.40
2022-08-05T10:26:15.744Z,33.20
2022-08-05T10:32:53.762Z,33.50
2022-08-05T10:36:28.541Z,34.10
2022-08-05T10:41:46.522Z,33.90
2022-08-05T10:46:54.251Z,33.00
2022-08-05T10:52:02.642Z,33.30
2022-08-05T10:57:07.761Z,33.60
2022-08-05T11:02:38.043Z,34.00
2022-08-05T11:07:32.854Z,34.40
2022-08-05T11:12:43.120Z,34.60
2022-08-05T11:18:03.817Z,34.00
2022-08-05T11:24:04.857Z,34.20
2022-08-05T11:28:46.873Z,34.20
2022-08-05T11:33:56.160Z,34.20
2022-08-05T11:39:03.163Z,34.30
2022-08-05T11:44:40.139Z,34.30
2022-08-05T11:49:25.128Z,33.90
2022-08-05T11:54:34.515Z,33.80
2022-08-05T11:59:49.499Z,34.00
2022-08-05T12:04:59.293Z,34.50
2022-08-05T12:10:04.401Z,34.50
2022-08-05T12:15:07.744Z,34.00
2022-08-05T12:20:17.258Z,34.40
2022-08-05T12:25:26.874Z,34.50
2022-08-05T12:30:33.310Z,34.20
2022-08-05T12:35:39.896Z,33.90
2022-08-05T12:40:46.316Z,33.90
2022-08-05T12:45:56.618Z,33.90
2022-08-05T12:52:11.158Z,34.10
2022-08-05T12:56:35.313Z,34.00
2022-08-05T13:02:02.435Z,33.60
2022-08-05T13:06:51.714Z,33.00
2022-08-05T13:12:02.539Z,32.50
2022-08-05T13:17:00.439Z,32.70
2022-08-05T13:22:06.610Z,33.30
2022-08-05T13:27:17.006Z,33.60
2022-08-05T13:32:21.520Z,33.60
2022-08-05T13:37:34.414Z,33.70
2022-08-05T13:42:33.934Z,33.90
2022-08-05T13:48:09.638Z,33.70
2022-08-05T13:52:46.902Z,33.90
2022-08-05T13:57:56.135Z,33.80
2022-08-05T14:03:01.754Z,33.70
2022-08-05T14:08:20.359Z,33.50
2022-08-05T14:13:15.451Z,33.30
2022-08-05T14:18:23.871Z,33.50
2022-08-05T14:23:36.656Z,33.50
2022-08-05T14:28:36.521Z,33.40
2022-08-05T14:33:59.270Z,33.50
2022-08-05T14:38:52.320Z,33.60
2022-08-05T14:44:09.571Z,33.80
2022-08-05T14:49:08.083Z,33.70
2022-08-05T14:54:33.534Z,33.70
2022-08-05T14:59:36.237Z,33.40
2022-08-05T15:04:41.657Z,33.40
2022-08-05T15:09:51.840Z,33.40
2022-08-05T15:14:56.133Z,33.30
2022-08-05T15:20:02.179Z,33.30
2022-08-05T15:25:13.607Z,33.40
2022-08-05T15:30:16.765Z,33.20
2022-08-05T15:35:22.419Z,33.00
2022-08-05T15:40:59.933Z,33.00
2022-08-05T15:45:38.557Z,32.80
2022-08-05T15:50:43.917Z,32.60
2022-08-05T15:56:04.055Z,32.40
2022-08-05T16:01:11.774Z,32.30
2022-08-05T16:06:04.004Z,32.40
2022-08-05T16:11:11.390Z,32.40
2022-08-05T16:16:25.160Z,32.40
2022-08-05T16:21:58.627Z,32.30
2022-08-05T16:26:52.583Z,32.20
2022-08-05T16:31:58.413Z,32.10
2022-08-05T16:38:02.655Z,32.00
2022-08-05T16:42:14.278Z,31.90
2022-08-05T16:47:24.669Z,31.80
2022-08-05T16:52:25.186Z,31.70
2022-08-05T16:58:00.215Z,31.50
2022-08-05T17:02:40.600Z,31.40
2022-08-05T17:07:54.747Z,31.30
2022-08-05T17:12:54.820Z,31.10
2022-08-05T17:18:00.419Z,31.00
2022-08-05T17:23:06.042Z,30.80
2022-08-05T17:28:15.511Z,30.60
2022-08-05T17:33:18.751Z,30.50
2022-08-05T17:38:25.644Z,30.30
2022-08-05T17:43:50.562Z,30.20
2022-08-05T17:48:43.359Z,30.00
2022-08-05T17:53:54.723Z,29.80
2022-08-05T17:58:58.013Z,29.60
2022-08-05T18:04:11.987Z,29.40
2022-08-05T18:09:59.996Z,29.20
2022-08-05T18:14:41.698Z,29.10
2022-08-05T18:19:51.415Z,28.90
2022-08-05T18:24:55.464Z,28.70
2022-08-05T18:30:02.893Z,28.60
2022-08-05T18:35:11.506Z,28.60
2022-08-05T18:40:33.657Z,28.50
2022-08-05T18:45:24.838Z,28.40
2022-08-05T18:50:48.561Z,28.50
2022-08-05T18:55:57.004Z,28.40
2022-08-05T19:01:04.325Z,28.30
2022-08-05T19:06:20.049Z,28.20
2022-08-05T19:11:21.935Z,27.90
2022-08-05T19:16:29.374Z,27.70
2022-08-05T19:21:34.298Z,27.60
2022-08-05T19:26:43.848Z,27.40
2022-08-05T19:31:51.036Z,27.30
2022-08-05T19:36:54.375Z,27.20
2022-08-05T19:42:07.766Z,27.10
2022-08-05T19:47:12.241Z,27.00
2022-08-05T19:52:40.391Z,26.70
2022-08-05T19:57:47.616Z,26.70
2022-08-05T20:02:35.904Z,26.60
2022-08-05T20:07:48.226Z,26.40
2022-08-05T20:12:50.120Z,26.10
2022-08-05T20:17:58.352Z,25.90
2022-08-05T20:23:04.637Z,25.60
2022-08-05T20:28:14.636Z,25.30
2022-08-05T20:33:17.926Z,24.90
2022-08-05T20:38:27.284Z,24.60
2022-08-05T20:43:57.587Z,24.30
2022-08-05T20:48:39.442Z,24.40
2022-08-05T20:53:55.143Z,24.30
2022-08-05T20:58:54.958Z,24.30
2022-08-05T21:04:00.559Z,24.30
2022-08-05T21:09:09.295Z,24.40
2022-08-05T21:14:16.502Z,24.30
2022-08-05T21:19:23.659Z,24.20
2022-08-05T21:24:30.063Z,24.10
2022-08-05T21:29:40.749Z,24.10
2022-08-05T21:34:42.713Z,24.00
2022-08-05T21:39:48.358Z,23.70
2022-08-05T21:44:55.401Z,23.60
2022-08-05T21:50:02.301Z,23.30
2022-08-05T21:55:09.586Z,23.20
2022-08-05T22:00:15.808Z,23.10
2022-08-05T22:05:21.657Z,23.10
2022-08-05T22:10:29.925Z,23.00
2022-08-05T22:16:04.734Z,23.00
2022-08-05T22:20:44.351Z,22.90
2022-08-05T22:26:11.852Z,22.60
2022-08-05T22:31:17.007Z,22.30
2022-08-05T22:36:24.336Z,22.20
2022-08-05T22:42:10.272Z,22.10
2022-08-05T22:46:39.714Z,22.20
2022-08-05T22:52:04.700Z,22.10
2022-08-05T23:02:46.569Z,22.00
2022-08-05T23:07:49.477Z,21.90
2022-08-05T23:12:58.091Z,21.90
2022-08-05T23:18:15.823Z,21.80
2022-08-05T23:23:29.918Z,21.80
2022-08-05T23:28:54.519Z,21.60
2022-08-05T23:34:05.106Z,21.60
2022-08-05T23:39:07.493Z,21.60
2022-08-05T23:44:17.149Z,21.60
2022-08-05T23:54:59.074Z,21.50
